createdAt,value
2023-01-09T00:00:08.874Z,97006.72
2023-01-09T00:02:35.427Z,97023.56
2023-01-09T00:05:01.958Z,97030.47
2023-01-09T00:07:28.499Z,97029.34
2023-01-09T00:09:54.940Z,97029.94
2023-01-09T00:12:21.475Z,97038.53
2023-01-09T00:14:47.950Z,97046.56
2023-01-09T00:17:14.448Z,97049.22
2023-01-09T00:19:41.006Z,97055.38
2023-01-09T00:22:09.586Z,97062.63
2023-01-09T00:24:36.952Z,97068.50
2023-01-09T00:27:03.567Z,97061.03
2023-01-09T00:29:30.143Z,97068.22
2023-01-09T00:31:56.655Z,97068.53
2023-01-09T00:34:23.573Z,97080.31
2023-01-09T00:36:55.073Z,97088.88
2023-01-09T00:39:23.070Z,97088.34
2023-01-09T00:41:53.029Z,97088.31
2023-01-09T00:44:31.974Z,97101.97
2023-01-09T00:47:07.915Z,97100.59
2023-01-09T00:49:36.838Z,97100.88
2023-01-09T00:52:05.514Z,97106.19
2023-01-09T00:54:32.373Z,97094.09
2023-01-09T00:56:59.403Z,97094.03
2023-01-09T00:59:27.549Z,97086.00
2023-01-09T01:01:54.051Z,97077.16
2023-01-09T01:04:43.754Z,97080.63
2023-01-09T01:07:28.497Z,97072.09
2023-01-09T01:09:55.066Z,97069.69
2023-01-09T01:12:21.569Z,97067.31
2023-01-09T01:14:48.053Z,97067.31
2023-01-09T01:17:14.497Z,97063.56
2023-01-09T01:19:40.970Z,97063.00
2023-01-09T01:22:07.480Z,97061.41
2023-01-09T01:24:34.169Z,97067.59
2023-01-09T01:27:00.653Z,97069.44
2023-01-09T01:29:27.298Z,97081.19
2023-01-09T01:31:54.118Z,97071.91
2023-01-09T01:34:20.676Z,97081.75
2023-01-09T01:36:47.219Z,97076.13
2023-01-09T01:39:13.713Z,97084.16
2023-01-09T01:41:40.261Z,97086.81
2023-01-09T01:44:45.191Z,97079.31
2023-01-09T01:47:12.606Z,97085.50
2023-01-09T01:49:39.125Z,97091.13
2023-01-09T01:52:05.927Z,97095.13
2023-01-09T01:54:32.644Z,97097.25
2023-01-09T01:57:03.302Z,97095.34
2023-01-09T01:59:53.551Z,97098.84
2023-01-09T02:02:23.546Z,97117.78
2023-01-09T02:04:53.040Z,97126.53
2023-01-09T02:07:20.342Z,97139.84
2023-01-09T02:09:46.989Z,97162.78
2023-01-09T02:12:20.076Z,97160.25
2023-01-09T02:14:48.711Z,97164.06
2023-01-09T02:17:33.751Z,97169.41
2023-01-09T02:20:40.238Z,97185.97
2023-01-09T02:23:27.792Z,97180.63
2023-01-09T02:26:19.748Z,97188.91
2023-01-09T02:29:31.530Z,97196.19
2023-01-09T02:32:31.543Z,97186.88
2023-01-09T02:35:27.961Z,97199.69
2023-01-09T02:38:03.608Z,97203.72
2023-01-09T02:40:46.787Z,97222.94
2023-01-09T02:43:14.221Z,97230.66
2023-01-09T02:45:40.795Z,97230.88
2023-01-09T02:48:10.542Z,97240.19
2023-01-09T02:50:46.437Z,97243.94
2023-01-09T02:53:31.716Z,97244.38
2023-01-09T02:56:25.069Z,97257.25
2023-01-09T02:59:11.795Z,97277.19
2023-01-09T03:02:02.821Z,97302.75
2023-01-09T03:04:52.141Z,97313.69
2023-01-09T03:07:33.216Z,97326.56
2023-01-09T03:10:17.685Z,97327.84
2023-01-09T03:12:45.327Z,97343.38
2023-01-09T03:15:15.266Z,97338.13
2023-01-09T03:17:45.699Z,97355.00
2023-01-09T03:20:15.311Z,97367.81
2023-01-09T03:22:56.430Z,97385.16
2023-01-09T03:25:24.013Z,97392.03
2023-01-09T03:27:57.828Z,97406.16
2023-01-09T03:30:25.237Z,97397.88
2023-01-09T03:32:51.832Z,97407.94
2023-01-09T03:35:18.658Z,97423.97
2023-01-09T03:37:45.143Z,97428.72
2023-01-09T03:40:11.913Z,97429.44
2023-01-09T03:42:38.495Z,97429.75
2023-01-09T03:45:05.713Z,97433.97
2023-01-09T03:47:32.225Z,97440.91
2023-01-09T03:49:58.739Z,97449.44
2023-01-09T03:52:25.243Z,97460.13
2023-01-09T03:54:51.745Z,97464.56
2023-01-09T03:57:18.201Z,97476.56
2023-01-09T03:59:44.629Z,97486.69
2023-01-09T04:02:11.150Z,97490.97
2023-01-09T04:04:37.863Z,97487.34
2023-01-09T04:07:04.412Z,97489.34
2023-01-09T04:09:30.937Z,97495.97
2023-01-09T04:11:57.373Z,97499.38
2023-01-09T04:14:24.015Z,97500.78
2023-01-09T04:16:50.706Z,97508.28
2023-01-09T04:19:17.205Z,97516.06
2023-01-09T04:21:43.652Z,97518.00
2023-01-09T04:24:11.242Z,97519.03
2023-01-09T04:26:37.762Z,97526.03
2023-01-09T04:29:04.328Z,97523.56
2023-01-09T04:31:30.842Z,97531.97
2023-01-09T04:33:57.335Z,97530.13
2023-01-09T04:36:23.767Z,97534.53
2023-01-09T04:38:50.267Z,97550.38
2023-01-09T04:41:36.673Z,97545.81
2023-01-09T04:44:03.335Z,97563.75
2023-01-09T04:46:29.829Z,97576.81
2023-01-09T04:48:56.348Z,97583.44
2023-01-09T04:51:22.832Z,97584.03
2023-01-09T04:53:49.385Z,97574.75
2023-01-09T04:56:15.829Z,97581.94
2023-01-09T04:58:42.276Z,97592.13
2023-01-09T05:01:08.878Z,97597.47
2023-01-09T05:03:35.418Z,97596.41
2023-01-09T05:06:01.899Z,97598.50
2023-01-09T05:08:28.417Z,97601.44
2023-01-09T05:10:54.938Z,97602.22
2023-01-09T05:13:21.372Z,97603.84
2023-01-09T05:15:47.843Z,97604.19
2023-01-09T05:18:14.335Z,97609.53
2023-01-09T05:20:40.844Z,97603.38
2023-01-09T05:23:07.329Z,97602.91
2023-01-09T05:25:33.796Z,97592.94
2023-01-09T05:28:01.488Z,97588.19
2023-01-09T05:30:28.446Z,97585.25
2023-01-09T05:32:54.897Z,97584.34
2023-01-09T05:35:21.383Z,97588.56
2023-01-09T05:37:47.874Z,97586.13
2023-01-09T05:40:14.445Z,97601.75
2023-01-09T05:42:43.038Z,97605.19
2023-01-09T05:45:10.034Z,97594.91
2023-01-09T05:47:37.146Z,97591.50
2023-01-09T05:50:04.451Z,97589.28
2023-01-09T05:52:31.016Z,97592.41
2023-01-09T05:54:57.668Z,97587.22
2023-01-09T05:57:24.211Z,97581.09
2023-01-09T05:59:50.698Z,97585.84
2023-01-09T06:02:17.279Z,97585.38
2023-01-09T06:04:44.059Z,97583.66
2023-01-09T06:07:10.512Z,97587.59
2023-01-09T06:09:37.029Z,97588.50
2023-01-09T06:12:03.758Z,97597.81
2023-01-09T06:14:30.280Z,97595.84
2023-01-09T06:16:56.770Z,97602.22
2023-01-09T06:19:23.267Z,97595.50
2023-01-09T06:21:49.815Z,97598.31
2023-01-09T06:24:16.418Z,97597.84
2023-01-09T06:26:42.947Z,97600.28
2023-01-09T06:29:09.445Z,97596.78
2023-01-09T06:31:35.943Z,97593.09
2023-01-09T06:34:02.702Z,97591.22
2023-01-09T06:36:29.221Z,97594.13
2023-01-09T06:38:55.823Z,97580.22
2023-01-09T06:41:22.317Z,97581.84
2023-01-09T06:43:48.828Z,97587.16
2023-01-09T06:46:15.322Z,97582.31
2023-01-09T06:48:41.868Z,97580.22
2023-01-09T06:51:08.453Z,97578.59
2023-01-09T06:53:35.221Z,97579.31
2023-01-09T06:56:04.873Z,97582.91
2023-01-09T06:58:31.456Z,97579.91
2023-01-09T07:00:58.991Z,97577.84
2023-01-09T07:03:25.986Z,97586.97
2023-01-09T07:05:52.507Z,97577.03
2023-01-09T07:08:19.109Z,97584.47
2023-01-09T07:10:45.587Z,97581.56
2023-01-09T07:13:12.130Z,97586.50
2023-01-09T07:15:38.781Z,97580.13
2023-01-09T07:18:05.388Z,97582.38
2023-01-09T07:20:31.904Z,97587.94
2023-01-09T07:22:58.557Z,97589.00
2023-01-09T07:25:25.053Z,97591.28
2023-01-09T07:27:51.564Z,97578.75
2023-01-09T07:30:18.180Z,97579.28
2023-01-09T07:32:44.734Z,97572.81
2023-01-09T07:35:11.355Z,97559.72
2023-01-09T07:37:37.888Z,97556.81
2023-01-09T07:40:05.015Z,97552.66
2023-01-09T07:42:31.507Z,97555.31
2023-01-09T07:44:58.070Z,97552.25
2023-01-09T07:47:24.527Z,97553.38
2023-01-09T07:49:51.065Z,97539.31
2023-01-09T07:52:17.543Z,97543.50
2023-01-09T07:54:43.971Z,97549.22
2023-01-09T07:57:10.506Z,97544.94
2023-01-09T07:59:36.950Z,97544.56
2023-01-09T08:02:05.700Z,97542.06
2023-01-09T08:04:32.267Z,97548.09
2023-01-09T08:06:58.878Z,97548.75
2023-01-09T08:09:25.372Z,97560.31
2023-01-09T08:11:51.876Z,97562.84
2023-01-09T08:14:18.380Z,97555.88
2023-01-09T08:16:44.880Z,97557.41
2023-01-09T08:19:12.304Z,97564.28
2023-01-09T08:21:39.954Z,97564.22
2023-01-09T08:24:06.744Z,97567.06
2023-01-09T08:26:33.332Z,97569.41
2023-01-09T08:28:59.845Z,97570.94
2023-01-09T08:31:26.466Z,97571.25
2023-01-09T08:33:53.152Z,97570.63
2023-01-09T08:36:19.723Z,97569.16
2023-01-09T08:38:46.243Z,97573.25
2023-01-09T08:41:45.071Z,97579.41
2023-01-09T08:44:30.491Z,97572.94
2023-01-09T08:47:05.588Z,97571.69
2023-01-09T08:49:37.159Z,97576.06
2023-01-09T08:52:05.156Z,97580.91
2023-01-09T08:54:31.863Z,97578.03
2023-01-09T08:56:58.455Z,97579.25
2023-01-09T08:59:25.057Z,97580.09
2023-01-09T09:01:51.600Z,97570.91
2023-01-09T09:04:18.165Z,97575.69
2023-01-09T09:06:44.617Z,97574.16
2023-01-09T09:09:11.639Z,97573.59
2023-01-09T09:11:38.313Z,97577.72
2023-01-09T09:14:25.645Z,97570.53
2023-01-09T09:16:53.021Z,97572.19
2023-01-09T09:19:19.678Z,97564.97
2023-01-09T09:21:46.446Z,97565.03
2023-01-09T09:24:12.871Z,97554.06
2023-01-09T09:26:39.343Z,97551.09
2023-01-09T09:29:06.060Z,97543.03
2023-01-09T09:31:32.691Z,97543.59
2023-01-09T09:33:59.376Z,97551.97
2023-01-09T09:36:25.892Z,97547.75
2023-01-09T09:38:52.354Z,97554.25
2023-01-09T09:41:41.857Z,97554.75
2023-01-09T09:44:43.776Z,97552.09
2023-01-09T09:47:41.672Z,97555.31
2023-01-09T09:50:47.334Z,97556.81
2023-01-09T09:53:21.545Z,97562.69
2023-01-09T09:55:50.320Z,97560.00
2023-01-09T09:58:37.473Z,97562.16
2023-01-09T10:01:05.949Z,97557.69
2023-01-09T10:03:44.409Z,97567.03
2023-01-09T10:06:19.708Z,97559.00
2023-01-09T10:08:55.732Z,97567.03
2023-01-09T10:11:42.938Z,97564.81
2023-01-09T10:14:23.343Z,97556.66
2023-01-09T10:17:03.354Z,97552.84
2023-01-09T10:19:57.340Z,97543.09
2023-01-09T10:22:34.968Z,97550.84
2023-01-09T10:25:15.513Z,97542.31
2023-01-09T10:28:17.543Z,97546.63
2023-01-09T10:30:52.955Z,97554.38
2023-01-09T10:33:54.637Z,97555.44
2023-01-09T10:36:49.670Z,97571.66
2023-01-09T10:39:25.682Z,97575.56
2023-01-09T10:42:04.631Z,97561.06
2023-01-09T10:44:38.818Z,97577.09
2023-01-09T10:47:17.760Z,97567.38
2023-01-09T10:49:46.268Z,97576.22
2023-01-09T10:52:19.253Z,97575.59
2023-01-09T10:54:56.866Z,97575.97
2023-01-09T10:57:44.831Z,97584.53
2023-01-09T11:00:18.064Z,97579.16
2023-01-09T11:02:45.304Z,97582.81
2023-01-09T11:05:21.268Z,97582.31
2023-01-09T11:07:53.423Z,97582.22
2023-01-09T11:10:20.080Z,97580.97
2023-01-09T11:12:47.643Z,97575.63
2023-01-09T11:15:19.241Z,97577.03
2023-01-09T11:17:50.537Z,97569.28
2023-01-09T11:20:22.890Z,97582.28
2023-01-09T11:22:51.525Z,97589.22
2023-01-09T11:25:19.938Z,97600.91
2023-01-09T11:28:01.814Z,97598.59
2023-01-09T11:30:36.256Z,97592.97
2023-01-09T11:33:15.991Z,97599.63
2023-01-09T11:35:57.523Z,97612.69
2023-01-09T11:38:23.970Z,97614.50
2023-01-09T11:40:51.856Z,97607.69
2023-01-09T11:43:39.827Z,97605.25
2023-01-09T11:46:09.190Z,97608.06
2023-01-09T11:48:54.620Z,97602.84
2023-01-09T11:51:23.971Z,97604.78
2023-01-09T11:54:01.719Z,97599.41
2023-01-09T11:56:29.208Z,97609.63
2023-01-09T11:58:55.835Z,97616.63
2023-01-09T12:01:22.344Z,97600.47
2023-01-09T12:04:16.888Z,97598.66
2023-01-09T12:07:01.924Z,97597.50
2023-01-09T12:09:54.936Z,97604.50
2023-01-09T12:12:21.428Z,97610.81
2023-01-09T12:15:10.032Z,97603.09
2023-01-09T12:18:06.870Z,97596.63
2023-01-09T12:21:06.982Z,97586.66
2023-01-09T12:23:54.500Z,97594.69
2023-01-09T12:26:25.340Z,97587.56
2023-01-09T12:29:13.565Z,97592.31
2023-01-09T12:32:04.633Z,97584.09
2023-01-09T12:35:00.317Z,97574.84
2023-01-09T12:38:05.284Z,97579.06
2023-01-09T12:40:53.343Z,97576.06
2023-01-09T12:43:28.560Z,97578.50
2023-01-09T12:46:01.173Z,97580.00
2023-01-09T12:49:05.518Z,97572.81
2023-01-09T12:51:47.658Z,97576.75
2023-01-09T12:54:38.611Z,97579.78
2023-01-09T12:57:13.200Z,97569.81
2023-01-09T13:00:03.063Z,97562.84
2023-01-09T13:02:44.207Z,97570.63
2023-01-09T13:05:17.436Z,97572.25
2023-01-09T13:07:53.731Z,97567.66
2023-01-09T13:10:39.065Z,97563.91
2023-01-09T13:13:15.172Z,97562.00
2023-01-09T13:15:46.525Z,97575.81
2023-01-09T13:18:42.462Z,97575.09
2023-01-09T13:21:11.825Z,97570.03
2023-01-09T13:24:05.969Z,97573.66
2023-01-09T13:26:43.948Z,97578.44
2023-01-09T13:29:19.542Z,97584.63
2023-01-09T13:31:54.419Z,97576.53
2023-01-09T13:34:25.181Z,97576.50
2023-01-09T13:36:55.557Z,97590.56
2023-01-09T13:39:28.591Z,97579.47
2023-01-09T13:42:21.328Z,97581.59
2023-01-09T13:44:49.914Z,97586.88
2023-01-09T13:47:18.749Z,97591.00
2023-01-09T13:49:47.974Z,97588.09
2023-01-09T13:52:40.466Z,97594.53
2023-01-09T13:55:16.255Z,97600.44
2023-01-09T13:57:44.146Z,97606.84
2023-01-09T14:00:14.601Z,97612.59
2023-01-09T14:02:41.280Z,97615.56
2023-01-09T14:05:16.269Z,97619.28
2023-01-09T14:07:49.316Z,97616.59
2023-01-09T14:10:24.604Z,97622.47
2023-01-09T14:12:55.031Z,97621.84
2023-01-09T14:15:40.432Z,97633.06
2023-01-09T14:18:25.623Z,97648.75
2023-01-09T14:20:59.261Z,97654.25
2023-01-09T14:23:50.774Z,97657.81
2023-01-09T14:26:41.265Z,97657.88
2023-01-09T14:29:29.455Z,97691.13
2023-01-09T14:32:23.774Z,97725.59
2023-01-09T14:35:18.176Z,97714.97
2023-01-09T14:37:59.921Z,97738.81
2023-01-09T14:40:26.380Z,97757.53
2023-01-09T14:42:56.077Z,97757.34
2023-01-09T14:45:25.721Z,97764.13
2023-01-09T14:47:55.149Z,97762.16
2023-01-09T14:50:44.909Z,97757.50
2023-01-09T14:53:18.245Z,97763.66
2023-01-09T14:55:59.894Z,97766.56
2023-01-09T14:58:31.339Z,97777.88
2023-01-09T15:01:02.175Z,97783.06
2023-01-09T15:03:34.876Z,97786.44
2023-01-09T15:06:01.708Z,97785.34
2023-01-09T15:08:29.061Z,97789.19
2023-01-09T15:10:57.794Z,97801.47
2023-01-09T15:13:29.932Z,97812.25
2023-01-09T15:15:57.280Z,97816.13
2023-01-09T15:18:30.520Z,97819.81
2023-01-09T15:21:00.615Z,97822.25
2023-01-09T15:23:30.334Z,97821.88
2023-01-09T15:26:12.087Z,97825.91
2023-01-09T15:28:42.793Z,97824.53
2023-01-09T15:31:16.571Z,97823.75
2023-01-09T15:33:46.467Z,97827.53
2023-01-09T15:36:19.507Z,97823.28
2023-01-09T15:38:48.072Z,97833.91
2023-01-09T15:41:42.510Z,97844.91
2023-01-09T15:44:19.344Z,97840.66
2023-01-09T15:46:46.907Z,97848.53
2023-01-09T15:49:14.301Z,97852.34
2023-01-09T15:51:43.501Z,97855.28
2023-01-09T15:54:16.481Z,97851.22
2023-01-09T15:56:45.657Z,97855.66
2023-01-09T15:59:28.658Z,97861.91
2023-01-09T16:02:19.524Z,97858.78
2023-01-09T16:04:47.056Z,97853.72
2023-01-09T16:07:16.152Z,97861.81
2023-01-09T16:09:52.510Z,97884.91
2023-01-09T16:12:25.347Z,97886.56
2023-01-09T16:14:57.874Z,97887.97
2023-01-09T16:17:26.686Z,97897.72
2023-01-09T16:20:14.335Z,97906.53
2023-01-09T16:22:55.487Z,97915.69
2023-01-09T16:25:31.055Z,97930.34
2023-01-09T16:28:16.093Z,97927.28
2023-01-09T16:30:51.378Z,97943.22
2023-01-09T16:33:23.982Z,97936.47
2023-01-09T16:35:51.474Z,97934.72
2023-01-09T16:38:18.649Z,97937.50
2023-01-09T16:41:24.585Z,97944.38
2023-01-09T16:43:51.687Z,97950.38
2023-01-09T16:46:21.455Z,97963.50
2023-01-09T16:48:48.543Z,97962.34
2023-01-09T16:51:17.832Z,97970.09
2023-01-09T16:53:44.987Z,97972.09
2023-01-09T16:56:19.853Z,97979.53
2023-01-09T16:58:46.416Z,97975.72
2023-01-09T17:01:15.895Z,97985.66
2023-01-09T17:03:44.252Z,97982.84
2023-01-09T17:06:31.040Z,97993.53
2023-01-09T17:08:58.387Z,97993.31
2023-01-09T17:11:31.687Z,97998.22
2023-01-09T17:13:59.146Z,98007.81
2023-01-09T17:16:25.884Z,98005.53
2023-01-09T17:18:53.217Z,98019.34
2023-01-09T17:21:24.998Z,98022.00
2023-01-09T17:24:26.829Z,98023.31
2023-01-09T17:27:11.664Z,98034.94
2023-01-09T17:29:38.151Z,98034.72
2023-01-09T17:32:04.838Z,98048.84
2023-01-09T17:34:31.508Z,98045.97
2023-01-09T17:36:58.133Z,98039.97
2023-01-09T17:39:24.620Z,98046.97
2023-01-09T17:41:51.153Z,98036.19
2023-01-09T17:44:17.611Z,98039.78
2023-01-09T17:46:44.920Z,98058.47
2023-01-09T17:49:17.560Z,98052.69
2023-01-09T17:51:44.652Z,98050.94
2023-01-09T17:54:11.399Z,98062.69
2023-01-09T17:56:42.532Z,98060.81
2023-01-09T17:59:14.443Z,98062.69
2023-01-09T18:01:42.397Z,98061.22
2023-01-09T18:04:09.608Z,98060.56
2023-01-09T18:06:38.668Z,98071.00
2023-01-09T18:09:06.407Z,98076.16
2023-01-09T18:11:33.367Z,98079.19
2023-01-09T18:13:59.952Z,98081.75
2023-01-09T18:16:27.950Z,98083.38
2023-01-09T18:18:57.652Z,98090.44
2023-01-09T18:21:27.278Z,98093.69
2023-01-09T18:23:54.259Z,98102.28
2023-01-09T18:26:21.565Z,98102.50
2023-01-09T18:28:59.269Z,98101.47
2023-01-09T18:31:27.459Z,98105.25
2023-01-09T18:33:56.578Z,98111.78
2023-01-09T18:36:30.753Z,98117.13
2023-01-09T18:38:59.510Z,98115.34
2023-01-09T18:41:26.761Z,98118.03
2023-01-09T18:43:55.618Z,98125.69
2023-01-09T18:46:25.620Z,98130.47
2023-01-09T18:48:56.906Z,98139.41
2023-01-09T18:51:24.906Z,98144.44
2023-01-09T18:53:52.055Z,98143.34
2023-01-09T18:56:19.951Z,98148.91
2023-01-09T18:58:47.675Z,98147.47
2023-01-09T19:01:15.348Z,98155.50
2023-01-09T19:03:42.340Z,98151.34
2023-01-09T19:06:09.080Z,98154.59
2023-01-09T19:08:35.932Z,98151.56
2023-01-09T19:11:02.761Z,98149.78
2023-01-09T19:13:31.293Z,98150.69
2023-01-09T19:15:58.753Z,98153.81
2023-01-09T19:18:26.499Z,98151.94
2023-01-09T19:20:53.660Z,98146.97
2023-01-09T19:23:21.330Z,98150.09
2023-01-09T19:25:48.114Z,98151.03
2023-01-09T19:28:14.565Z,98149.06
2023-01-09T19:30:41.261Z,98158.03
2023-01-09T19:33:10.277Z,98168.91
2023-01-09T19:35:37.092Z,98178.50
2023-01-09T19:38:04.189Z,98188.41
2023-01-09T19:40:30.883Z,98184.66
2023-01-09T19:42:58.160Z,98207.84
2023-01-09T19:45:24.782Z,98199.41
2023-01-09T19:47:51.314Z,98195.75
2023-01-09T19:50:18.359Z,98207.69
2023-01-09T19:52:45.651Z,98204.88
2023-01-09T19:55:13.932Z,98204.13
2023-01-09T19:57:42.736Z,98198.13
2023-01-09T20:00:13.634Z,98205.53
2023-01-09T20:02:41.496Z,98204.81
2023-01-09T20:05:09.037Z,98207.09
2023-01-09T20:07:35.577Z,98209.47
2023-01-09T20:10:02.135Z,98213.31
2023-01-09T20:12:28.904Z,98214.88
2023-01-09T20:14:55.427Z,98216.34
2023-01-09T20:17:21.963Z,98213.31
2023-01-09T20:19:48.487Z,98208.84
2023-01-09T20:22:15.108Z,98210.59
2023-01-09T20:24:41.874Z,98210.09
2023-01-09T20:27:08.353Z,98205.56
2023-01-09T20:29:34.823Z,98213.44
2023-01-09T20:32:01.450Z,98220.41
2023-01-09T20:34:28.054Z,98219.06
2023-01-09T20:36:54.820Z,98204.31
2023-01-09T20:39:21.531Z,98217.00
2023-01-09T20:41:48.463Z,98222.66
2023-01-09T20:44:15.866Z,98238.59
2023-01-09T20:46:47.398Z,98237.94
2023-01-09T20:49:16.941Z,98240.44
2023-01-09T20:51:46.694Z,98238.00
2023-01-09T20:54:14.653Z,98239.88
2023-01-09T20:56:41.163Z,98241.03
2023-01-09T20:59:12.588Z,98242.22
2023-01-09T21:01:40.228Z,98239.88
2023-01-09T21:04:08.631Z,98251.88
2023-01-09T21:06:36.253Z,98250.31
2023-01-09T21:09:04.020Z,98260.03
2023-01-09T21:11:30.873Z,98253.50
2023-01-09T21:13:57.529Z,98257.28
2023-01-09T21:16:25.104Z,98260.84
2023-01-09T21:18:53.156Z,98244.91
2023-01-09T21:21:24.649Z,98243.88
2023-01-09T21:23:57.314Z,98243.28
2023-01-09T21:26:28.225Z,98250.09
2023-01-09T21:28:56.496Z,98252.09
2023-01-09T21:31:29.793Z,98255.78
2023-01-09T21:33:56.311Z,98263.06
2023-01-09T21:36:23.028Z,98257.41
2023-01-09T21:38:52.105Z,98268.66
2023-01-09T21:41:38.577Z,98257.41
2023-01-09T21:44:24.864Z,98265.09
2023-01-09T21:46:57.440Z,98280.69
2023-01-09T21:49:26.314Z,98275.09
2023-01-09T21:51:54.106Z,98280.66
2023-01-09T21:54:23.013Z,98282.72
2023-01-09T21:56:50.607Z,98290.50
2023-01-09T21:59:17.153Z,98296.00
2023-01-09T22:01:44.294Z,98300.28
2023-01-09T22:04:15.116Z,98301.56
2023-01-09T22:06:41.857Z,98308.16
2023-01-09T22:09:10.022Z,98312.50
2023-01-09T22:11:37.725Z,98323.66
2023-01-09T22:14:04.319Z,98327.59
2023-01-09T22:16:31.140Z,98331.25
2023-01-09T22:18:57.896Z,98332.03
2023-01-09T22:21:25.522Z,98335.06
2023-01-09T22:23:52.444Z,98336.25
2023-01-09T22:26:19.504Z,98339.34
2023-01-09T22:28:46.577Z,98352.88
2023-01-09T22:31:20.024Z,98351.75
2023-01-09T22:33:50.691Z,98361.56
2023-01-09T22:36:17.882Z,98365.47
2023-01-09T22:38:44.585Z,98366.31
2023-01-09T22:41:11.584Z,98363.44
2023-01-09T22:43:38.113Z,98359.59
2023-01-09T22:46:06.839Z,98373.91
2023-01-09T22:48:34.617Z,98382.91
2023-01-09T22:51:02.707Z,98380.25
2023-01-09T22:53:30.159Z,98394.78
2023-01-09T22:55:58.489Z,98397.19
2023-01-09T22:58:27.197Z,98398.22
2023-01-09T23:00:53.889Z,98400.28
2023-01-09T23:03:21.056Z,98403.19
2023-01-09T23:05:47.520Z,98409.94
2023-01-09T23:08:14.544Z,98424.28
2023-01-09T23:10:41.895Z,98421.19
2023-01-09T23:13:08.393Z,98422.63
2023-01-09T23:15:34.900Z,98432.72
2023-01-09T23:18:01.449Z,98428.00
2023-01-09T23:20:27.948Z,98449.00
2023-01-09T23:22:54.413Z,98453.91
2023-01-09T23:25:20.967Z,98452.44
2023-01-09T23:27:47.462Z,98464.97
2023-01-09T23:30:14.230Z,98467.25
2023-01-09T23:32:40.769Z,98483.88
2023-01-09T23:35:07.648Z,98480.59
2023-01-09T23:37:34.166Z,98497.44
2023-01-09T23:40:00.608Z,98491.47
2023-01-09T23:42:45.688Z,98512.22
2023-01-09T23:45:12.289Z,98504.81
2023-01-09T23:47:38.852Z,98508.91
2023-01-09T23:50:07.021Z,98512.00
2023-01-09T23:52:33.520Z,98516.28
2023-01-09T23:54:59.998Z,98510.34
2023-01-09T23:57:26.482Z,98525.31
2023-01-09T23:59:53.021Z,98533.56
